Okabena, Minnesota
Current Conditions -  °F | °C
As of 6:35 AM on Friday 28 Nov 2014 (Local Time) from KOTG Reporting Station
Clear Clear  
Wind Chill: -16°   Ceiling: Unl
Heat Index: -11°   Visibility: 10mi
Dew Point: -12°   Wind: 6mph
Humidity: 92%   Direction: 150°SSE
Pressure: 29.87"   Gusts: NA
Location:  43.74°N, 95.32°W
Report Text: KOTG 281235Z AUTO 15005KT 10SM CLR M11/M12 A2987 RMK AO1
Loading
Personal Weather Stations






























Interactive Weather Map New forecast layout! Learn more

10-Day Weather Forecast

Advertisements
Track Severe Weather on mobile